createdAt,value
2022-08-24T00:00:07.771Z,101715.81
2022-08-24T00:02:34.313Z,101713.53
2022-08-24T00:05:01.278Z,101718.22
2022-08-24T00:07:28.331Z,101710.81
2022-08-24T00:09:55.269Z,101715.00
2022-08-24T00:12:21.986Z,101710.94
2022-08-24T00:14:49.423Z,101707.19
2022-08-24T00:17:16.411Z,101696.81
2022-08-24T00:19:43.004Z,101699.25
2022-08-24T00:22:10.084Z,101705.72
2022-08-24T00:24:36.579Z,101705.72
2022-08-24T00:27:03.524Z,101706.63
2022-08-24T00:29:30.027Z,101706.91
2022-08-24T00:31:56.578Z,101703.63
2022-08-24T00:34:23.186Z,101702.34
2022-08-24T00:36:49.792Z,101695.66
2022-08-24T00:39:16.344Z,101695.94
2022-08-24T00:41:44.985Z,101697.19
2022-08-24T00:44:12.007Z,101694.91
2022-08-24T00:46:48.427Z,101695.44
2022-08-24T00:49:56.342Z,101693.94
2022-08-24T00:52:39.343Z,101701.88
2022-08-24T00:55:13.740Z,101707.34
2022-08-24T00:57:43.294Z,101707.34
2022-08-24T01:00:23.495Z,101705.50
2022-08-24T01:02:54.548Z,101703.44
2022-08-24T01:05:21.123Z,101704.00
2022-08-24T01:07:50.686Z,101713.88
2022-08-24T01:10:20.632Z,101710.50
2022-08-24T01:12:56.133Z,101707.47
2022-08-24T01:15:30.950Z,101705.06
2022-08-24T01:18:16.631Z,101716.97
2022-08-24T01:20:46.489Z,101709.53
2022-08-24T01:23:38.386Z,101714.78
2022-08-24T01:26:07.647Z,101719.72
2022-08-24T01:28:37.035Z,101711.53
2022-08-24T01:31:03.667Z,101704.84
2022-08-24T01:33:31.848Z,101697.91
2022-08-24T01:36:02.454Z,101702.03
2022-08-24T01:38:28.923Z,101705.72
2022-08-24T01:40:59.877Z,101708.88
2022-08-24T01:43:26.476Z,101708.13
2022-08-24T01:45:54.003Z,101711.00
2022-08-24T01:48:22.811Z,101705.72
2022-08-24T01:50:49.519Z,101706.25
2022-08-24T01:53:16.130Z,101709.19
2022-08-24T01:55:44.198Z,101710.22
2022-08-24T01:58:10.939Z,101704.78
2022-08-24T02:00:37.744Z,101705.94
2022-08-24T02:03:05.164Z,101707.13
2022-08-24T02:05:31.728Z,101716.81
2022-08-24T02:07:58.217Z,101714.50
2022-08-24T02:10:26.123Z,101704.97
2022-08-24T02:12:58.900Z,101708.81
2022-08-24T02:15:27.291Z,101717.00
2022-08-24T02:17:54.954Z,101707.34
2022-08-24T02:20:22.067Z,101724.59
2022-08-24T02:22:52.926Z,101719.28
2022-08-24T02:25:19.533Z,101719.44
2022-08-24T02:27:46.036Z,101721.56
2022-08-24T02:30:12.758Z,101711.75
2022-08-24T02:32:41.772Z,101713.72
2022-08-24T02:35:09.000Z,101712.63
2022-08-24T02:37:35.858Z,101722.41
2022-08-24T02:40:11.598Z,101716.50
2022-08-24T02:42:38.253Z,101720.94
2022-08-24T02:45:05.202Z,101714.59
2022-08-24T02:47:37.976Z,101716.19
2022-08-24T02:50:07.612Z,101719.97
2022-08-24T02:52:35.827Z,101728.03
2022-08-24T02:55:02.299Z,101720.16
2022-08-24T02:57:28.775Z,101721.94
2022-08-24T02:59:55.209Z,101725.88
2022-08-24T03:02:21.688Z,101709.22
2022-08-24T03:04:49.474Z,101718.16
2022-08-24T03:07:16.329Z,101715.28
2022-08-24T03:09:42.786Z,101715.94
2022-08-24T03:12:09.276Z,101717.44
2022-08-24T03:14:35.906Z,101717.44
2022-08-24T03:17:02.410Z,101719.50
2022-08-24T03:19:29.195Z,101725.88
2022-08-24T03:21:56.737Z,101722.63
2022-08-24T03:24:23.349Z,101717.56
2022-08-24T03:26:50.232Z,101718.78
2022-08-24T03:29:16.814Z,101710.63
2022-08-24T03:31:43.684Z,101717.63
2022-08-24T03:34:13.401Z,101713.50
2022-08-24T03:36:41.196Z,101720.25
2022-08-24T03:39:07.989Z,101716.47
2022-08-24T03:41:34.448Z,101715.00
2022-08-24T03:44:03.384Z,101720.31
2022-08-24T03:46:30.698Z,101719.69
2022-08-24T03:48:58.719Z,101719.25
2022-08-24T03:51:27.021Z,101722.59
2022-08-24T03:53:54.222Z,101723.34
2022-08-24T03:56:21.009Z,101726.25
2022-08-24T03:58:47.646Z,101718.66
2022-08-24T04:01:14.952Z,101720.03
2022-08-24T04:03:43.393Z,101719.69
2022-08-24T04:06:11.886Z,101721.44
2022-08-24T04:08:39.535Z,101722.94
2022-08-24T04:11:06.175Z,101714.88
2022-08-24T04:13:32.837Z,101711.06
2022-08-24T04:16:05.285Z,101719.91
2022-08-24T04:18:31.775Z,101714.84
2022-08-24T04:20:58.306Z,101714.28
2022-08-24T04:23:41.254Z,101714.00
2022-08-24T04:26:11.926Z,101713.00
2022-08-24T04:28:38.474Z,101709.06
2022-08-24T04:31:06.119Z,101703.78
2022-08-24T04:33:32.946Z,101709.13
2022-08-24T04:35:59.414Z,101704.34
2022-08-24T04:38:26.833Z,101708.56
2022-08-24T04:40:53.615Z,101711.03
2022-08-24T04:43:20.201Z,101706.16
2022-08-24T04:45:48.073Z,101715.38
2022-08-24T04:48:15.768Z,101720.81
2022-08-24T04:50:43.629Z,101724.41
2022-08-24T04:53:12.011Z,101729.06
2022-08-24T04:55:46.839Z,101723.63
2022-08-24T04:58:14.220Z,101721.34
2022-08-24T05:00:41.084Z,101735.75
2022-08-24T05:03:07.855Z,101734.41
2022-08-24T05:05:34.775Z,101732.53
2022-08-24T05:08:01.260Z,101728.78
2022-08-24T05:10:29.324Z,101730.59
2022-08-24T05:13:00.336Z,101729.78
2022-08-24T05:15:26.839Z,101734.00
2022-08-24T05:17:53.266Z,101736.31
2022-08-24T05:20:20.153Z,101738.31
2022-08-24T05:22:46.666Z,101745.06
2022-08-24T05:25:13.195Z,101745.00
2022-08-24T05:27:39.604Z,101756.44
2022-08-24T05:30:06.777Z,101745.97
2022-08-24T05:32:33.345Z,101762.38
2022-08-24T05:35:01.292Z,101762.78
2022-08-24T05:37:27.716Z,101772.59
2022-08-24T05:39:54.186Z,101764.03
2022-08-24T05:42:20.698Z,101768.56
2022-08-24T05:44:47.175Z,101767.56
2022-08-24T05:47:14.079Z,101764.81
2022-08-24T05:49:41.668Z,101761.50
2022-08-24T05:52:08.840Z,101766.50
2022-08-24T05:54:35.348Z,101774.50
2022-08-24T05:57:04.930Z,101777.50
2022-08-24T05:59:32.022Z,101775.41
2022-08-24T06:01:58.499Z,101776.28
2022-08-24T06:04:25.768Z,101773.47
2022-08-24T06:06:53.018Z,101775.41
2022-08-24T06:09:19.518Z,101775.44
2022-08-24T06:11:47.582Z,101767.00
2022-08-24T06:14:16.394Z,101775.97
2022-08-24T06:16:45.877Z,101778.25
2022-08-24T06:19:14.507Z,101774.22
2022-08-24T06:21:41.462Z,101780.53
2022-08-24T06:24:08.115Z,101784.53
2022-08-24T06:26:53.114Z,101786.97
2022-08-24T06:29:20.437Z,101792.69
2022-08-24T06:31:54.092Z,101787.72
2022-08-24T06:34:22.695Z,101791.44
2022-08-24T06:36:49.217Z,101786.84
2022-08-24T06:39:15.634Z,101781.59
2022-08-24T06:41:43.482Z,101790.53
2022-08-24T06:44:09.984Z,101791.13
2022-08-24T06:46:36.537Z,101800.19
2022-08-24T06:49:03.427Z,101802.50
2022-08-24T06:51:30.229Z,101803.53
2022-08-24T06:53:56.655Z,101809.06
2022-08-24T06:56:23.280Z,101803.13
2022-08-24T06:58:49.778Z,101816.03
2022-08-24T07:01:22.788Z,101817.03
2022-08-24T07:03:49.418Z,101823.00
2022-08-24T07:06:15.929Z,101824.47
2022-08-24T07:08:43.123Z,101824.97
2022-08-24T07:11:10.544Z,101823.47
2022-08-24T07:13:37.213Z,101826.75
2022-08-24T07:16:04.696Z,101833.34
2022-08-24T07:18:32.525Z,101843.81
2022-08-24T07:21:02.597Z,101838.19
2022-08-24T07:23:41.554Z,101837.91
2022-08-24T07:26:17.184Z,101836.91
2022-08-24T07:28:51.864Z,101841.03
2022-08-24T07:31:18.987Z,101841.41
2022-08-24T07:33:45.480Z,101835.28
2022-08-24T07:36:12.866Z,101838.44
2022-08-24T07:38:48.900Z,101833.19
2022-08-24T07:41:38.300Z,101839.00
2022-08-24T07:44:01.772Z,101835.19
2022-08-24T07:46:28.419Z,101845.97
2022-08-24T07:49:04.990Z,101833.28
2022-08-24T07:51:38.883Z,101845.13
2022-08-24T07:54:12.203Z,101851.91
2022-08-24T07:56:40.582Z,101850.38
2022-08-24T07:59:11.070Z,101840.88
2022-08-24T08:01:39.871Z,101851.28
2022-08-24T08:04:06.441Z,101856.66
2022-08-24T08:06:32.916Z,101846.72
2022-08-24T08:08:59.374Z,101858.03
2022-08-24T08:11:25.859Z,101864.91
2022-08-24T08:13:54.171Z,101864.88
2022-08-24T08:16:21.719Z,101866.16
2022-08-24T08:18:52.401Z,101870.81
2022-08-24T08:21:46.103Z,101874.50
2022-08-24T08:24:15.129Z,101875.97
2022-08-24T08:26:42.899Z,101865.97
2022-08-24T08:29:10.585Z,101873.88
2022-08-24T08:31:38.131Z,101875.91
2022-08-24T08:34:05.630Z,101876.88
2022-08-24T08:36:32.885Z,101878.31
2022-08-24T08:38:59.412Z,101883.41
2022-08-24T08:41:42.050Z,101877.06
2022-08-24T08:44:34.190Z,101871.97
2022-08-24T08:47:38.185Z,101869.31
2022-08-24T08:50:15.200Z,101876.09
2022-08-24T08:53:15.357Z,101866.59
2022-08-24T08:55:58.412Z,101875.69
2022-08-24T08:58:57.407Z,101869.66
2022-08-24T09:02:01.855Z,101861.72
2022-08-24T09:04:51.680Z,101869.97
2022-08-24T09:07:24.157Z,101855.16
2022-08-24T09:10:12.606Z,101860.72
2022-08-24T09:13:01.001Z,101871.63
2022-08-24T09:16:10.422Z,101856.91
2022-08-24T09:18:46.023Z,101857.69
2022-08-24T09:21:41.520Z,101865.75
2022-08-24T09:24:26.264Z,101864.94
2022-08-24T09:27:07.429Z,101854.63
2022-08-24T09:29:58.812Z,101858.31
2022-08-24T09:32:33.502Z,101862.31
2022-08-24T09:35:03.935Z,101856.28
2022-08-24T09:37:34.903Z,101864.28
2022-08-24T09:40:39.428Z,101857.09
2022-08-24T09:43:08.760Z,101863.75
2022-08-24T09:45:57.173Z,101861.44
2022-08-24T09:48:45.756Z,101859.94
2022-08-24T09:51:49.885Z,101862.81
2022-08-24T09:54:54.098Z,101867.28
2022-08-24T09:58:01.085Z,101864.44
2022-08-24T10:00:31.699Z,101863.69
2022-08-24T10:03:03.773Z,101855.28
2022-08-24T10:05:47.187Z,101856.38
2022-08-24T10:08:39.425Z,101861.53
2022-08-24T10:11:24.144Z,101858.00
2022-08-24T10:14:47.476Z,101850.28
2022-08-24T10:17:22.865Z,101851.03
2022-08-24T10:20:04.705Z,101860.44
2022-08-24T10:22:37.680Z,101850.75
2022-08-24T10:25:22.860Z,101843.25
2022-08-24T10:27:58.075Z,101842.13
2022-08-24T10:30:44.732Z,101846.94
2022-08-24T10:33:20.615Z,101851.59
2022-08-24T10:36:07.915Z,101841.50
2022-08-24T10:39:10.170Z,101840.78
2022-08-24T10:41:48.591Z,101842.41
2022-08-24T10:44:32.458Z,101842.19
2022-08-24T10:51:00.076Z,101836.72
2022-08-24T10:53:31.042Z,101840.03
2022-08-24T10:56:11.891Z,101843.69
2022-08-24T10:58:51.014Z,101842.25
2022-08-24T11:01:36.746Z,101838.31
2022-08-24T11:04:11.713Z,101843.69
2022-08-24T11:06:43.830Z,101835.50
2022-08-24T11:09:19.439Z,101840.50
2022-08-24T11:11:48.946Z,101834.50
2022-08-24T11:14:15.268Z,101831.34
2022-08-24T11:16:45.063Z,101846.41
2022-08-24T11:19:14.747Z,101838.31
2022-08-24T11:21:48.881Z,101837.63
2022-08-24T11:24:20.446Z,101837.34
2022-08-24T11:27:02.073Z,101836.97
2022-08-24T11:29:50.162Z,101832.25
2022-08-24T11:32:38.092Z,101842.50
2022-08-24T11:35:29.850Z,101840.03
2022-08-24T11:38:07.682Z,101835.53
2022-08-24T11:40:39.730Z,101842.84
2022-08-24T11:43:27.953Z,101841.72
2022-08-24T11:46:12.318Z,101838.91
2022-08-24T11:48:45.713Z,101829.78
2022-08-24T11:51:32.185Z,101833.84
2022-08-24T11:54:24.640Z,101834.69
2022-08-24T11:57:15.848Z,101831.09
2022-08-24T12:00:04.752Z,101832.16
2022-08-24T12:02:43.002Z,101836.34
2022-08-24T12:05:25.956Z,101827.53
2022-08-24T12:08:10.832Z,101829.22
2022-08-24T12:10:57.209Z,101832.88
2022-08-24T12:13:45.239Z,101822.00
2022-08-24T12:16:16.461Z,101826.66
2022-08-24T12:19:19.983Z,101820.16
2022-08-24T12:21:48.453Z,101833.28
2022-08-24T12:24:39.602Z,101823.19
2022-08-24T12:27:15.693Z,101820.09
2022-08-24T12:29:50.214Z,101820.78
2022-08-24T12:32:24.515Z,101820.41
2022-08-24T12:35:10.802Z,101821.75
2022-08-24T12:38:03.935Z,101820.94
2022-08-24T12:40:48.142Z,101810.75
2022-08-24T12:43:28.739Z,101807.81
2022-08-24T12:46:01.275Z,101811.97
2022-08-24T12:48:35.839Z,101805.94
2022-08-24T12:51:29.271Z,101814.09
2022-08-24T12:54:17.535Z,101816.81
2022-08-24T12:57:05.090Z,101815.25
2022-08-24T12:59:38.748Z,101819.78
2022-08-24T13:02:27.956Z,101817.75
2022-08-24T13:05:00.349Z,101804.84
2022-08-24T13:07:32.290Z,101818.75
2022-08-24T13:09:58.682Z,101807.84
2022-08-24T13:12:46.591Z,101806.41
2022-08-24T13:15:31.112Z,101807.78
2022-08-24T13:18:08.692Z,101813.22
2022-08-24T13:20:36.139Z,101812.16
2022-08-24T13:23:11.732Z,101818.44
2022-08-24T13:25:47.119Z,101805.72
2022-08-24T13:28:25.643Z,101816.75
2022-08-24T13:31:07.365Z,101814.22
2022-08-24T13:33:38.028Z,101812.19
2022-08-24T13:36:29.187Z,101804.50
2022-08-24T13:39:03.957Z,101801.84
2022-08-24T13:41:49.494Z,101801.81
2022-08-24T13:44:27.953Z,101797.41
2022-08-24T13:47:02.971Z,101795.00
2022-08-24T13:50:07.726Z,101788.75
2022-08-24T13:52:45.123Z,101790.09
2022-08-24T13:55:20.785Z,101795.34
2022-08-24T13:58:08.026Z,101789.47
2022-08-24T14:00:43.956Z,101792.06
2022-08-24T14:03:19.384Z,101787.59
2022-08-24T14:06:04.796Z,101791.88
2022-08-24T14:08:55.375Z,101780.56
2022-08-24T14:11:38.605Z,101794.72
2022-08-24T14:14:36.071Z,101788.47
2022-08-24T14:17:48.564Z,101786.63
2022-08-24T14:20:40.767Z,101787.28
2022-08-24T14:23:13.297Z,101781.09
2022-08-24T14:25:39.821Z,101787.88
2022-08-24T14:28:33.340Z,101788.19
2022-08-24T14:31:21.057Z,101787.84
2022-08-24T14:34:13.359Z,101781.75
2022-08-24T14:36:48.699Z,101785.16
2022-08-24T14:39:35.775Z,101787.22
2022-08-24T14:42:19.761Z,101784.09
2022-08-24T14:44:49.143Z,101783.19
2022-08-24T14:48:00.825Z,101788.56
2022-08-24T14:50:55.526Z,101784.16
2022-08-24T14:53:59.552Z,101784.03
2022-08-24T14:56:54.920Z,101782.78
2022-08-24T14:59:38.767Z,101775.13
2022-08-24T15:02:42.963Z,101768.59
2022-08-24T15:05:32.478Z,101774.47
2022-08-24T15:08:00.937Z,101776.09
2022-08-24T15:10:51.210Z,101772.13
2022-08-24T15:13:27.225Z,101772.72
2022-08-24T15:16:14.721Z,101770.56
2022-08-24T15:18:51.796Z,101768.13
2022-08-24T15:21:29.476Z,101763.88
2022-08-24T15:24:13.891Z,101763.13
2022-08-24T15:26:55.641Z,101758.66
2022-08-24T15:29:25.419Z,101757.00
2022-08-24T15:32:09.369Z,101760.00
2022-08-24T15:34:46.369Z,101753.56
2022-08-24T15:37:15.990Z,101749.00
2022-08-24T15:39:43.070Z,101752.59
2022-08-24T15:42:13.484Z,101752.72
2022-08-24T15:44:42.386Z,101745.75
2022-08-24T15:47:25.255Z,101755.66
2022-08-24T15:50:03.571Z,101751.66
2022-08-24T15:52:43.471Z,101751.16
2022-08-24T15:55:36.404Z,101754.09
2022-08-24T15:58:18.528Z,101759.00
2022-08-24T16:01:03.742Z,101753.03
2022-08-24T16:04:00.727Z,101758.78
2022-08-24T16:06:33.365Z,101758.78
2022-08-24T16:09:09.184Z,101758.06
2022-08-24T16:11:38.992Z,101759.63
2022-08-24T16:14:12.488Z,101756.19
2022-08-24T16:16:42.990Z,101758.06
2022-08-24T16:19:29.049Z,101758.00
2022-08-24T16:21:58.411Z,101758.13
2022-08-24T16:24:35.049Z,101757.63
2022-08-24T16:27:11.583Z,101756.03
2022-08-24T16:29:37.919Z,101756.06
2022-08-24T16:32:21.429Z,101763.94
2022-08-24T16:35:08.915Z,101771.97
2022-08-24T16:37:35.435Z,101765.38
2022-08-24T16:40:01.958Z,101762.81
2022-08-24T16:42:29.841Z,101771.28
2022-08-24T16:44:57.408Z,101767.53
2022-08-24T16:47:24.573Z,101766.16
2022-08-24T16:49:51.770Z,101762.47
2022-08-24T16:52:18.741Z,101766.09
2022-08-24T16:54:45.604Z,101766.28
2022-08-24T16:57:22.728Z,101764.66
2022-08-24T16:59:50.184Z,101757.84
2022-08-24T17:02:18.608Z,101757.06
2022-08-24T17:04:45.258Z,101757.09
2022-08-24T17:07:17.034Z,101764.50
2022-08-24T17:09:46.084Z,101749.44
2022-08-24T17:12:12.975Z,101756.59
2022-08-24T17:14:39.624Z,101753.13
2022-08-24T17:17:07.639Z,101752.41
2022-08-24T17:19:34.084Z,101758.50
2022-08-24T17:22:00.533Z,101757.94
2022-08-24T17:24:27.074Z,101751.47
2022-08-24T17:26:54.564Z,101758.66
2022-08-24T17:29:21.013Z,101754.06
2022-08-24T17:31:49.924Z,101767.50
2022-08-24T17:34:16.748Z,101758.28
2022-08-24T17:36:46.588Z,101757.72
2022-08-24T17:39:14.187Z,101764.91
2022-08-24T17:41:40.878Z,101764.53
2022-08-24T17:44:10.450Z,101765.09
2022-08-24T17:46:37.264Z,101770.38
2022-08-24T17:49:03.972Z,101767.34
2022-08-24T17:51:30.418Z,101770.81
2022-08-24T17:53:56.841Z,101767.47
2022-08-24T17:56:23.493Z,101775.50
2022-08-24T17:59:08.599Z,101779.66
2022-08-24T18:01:35.079Z,101790.56
2022-08-24T18:04:01.563Z,101775.44
2022-08-24T18:06:28.655Z,101781.06
2022-08-24T18:08:58.132Z,101782.91
2022-08-24T18:11:26.165Z,101791.22
2022-08-24T18:13:54.355Z,101789.16
2022-08-24T18:16:23.477Z,101787.91
2022-08-24T18:18:51.830Z,101799.88
2022-08-24T18:21:20.124Z,101795.78
2022-08-24T18:23:48.387Z,101795.66
2022-08-24T18:26:35.260Z,101801.19
2022-08-24T18:29:10.446Z,101806.56
2022-08-24T18:31:37.626Z,101810.69
2022-08-24T18:34:04.450Z,101809.69
2022-08-24T18:36:31.140Z,101813.69
2022-08-24T18:38:57.635Z,101823.63
2022-08-24T18:41:27.480Z,101809.72
2022-08-24T18:43:54.676Z,101817.06
2022-08-24T18:46:21.535Z,101820.03
2022-08-24T18:48:47.965Z,101822.56
2022-08-24T18:51:16.920Z,101825.25
2022-08-24T18:53:43.354Z,101824.78
2022-08-24T18:56:12.509Z,101831.91
2022-08-24T18:58:39.373Z,101830.44
2022-08-24T19:01:06.287Z,101833.09
2022-08-24T19:03:32.942Z,101824.19
2022-08-24T19:05:59.453Z,101837.22
2022-08-24T19:08:25.928Z,101831.03
2022-08-24T19:10:52.597Z,101837.72
2022-08-24T19:13:19.300Z,101834.59
2022-08-24T19:15:47.282Z,101831.72
2022-08-24T19:18:15.894Z,101833.03
2022-08-24T19:20:48.290Z,101838.31
2022-08-24T19:23:23.061Z,101833.13
2022-08-24T19:25:49.679Z,101842.06
2022-08-24T19:28:18.735Z,101846.25
2022-08-24T19:30:46.787Z,101841.19
2022-08-24T19:33:19.893Z,101844.53
2022-08-24T19:35:46.727Z,101842.44
2022-08-24T19:38:13.348Z,101850.31
2022-08-24T19:40:39.941Z,101850.78
2022-08-24T19:43:14.969Z,101849.28
2022-08-24T19:46:01.394Z,101854.03
2022-08-24T19:48:30.129Z,101860.41
2022-08-24T19:50:56.588Z,101862.25
2022-08-24T19:53:24.437Z,101858.31
2022-08-24T19:55:50.905Z,101861.56
2022-08-24T19:58:52.886Z,101859.34
2022-08-24T20:01:34.502Z,101870.28
2022-08-24T20:04:02.550Z,101868.47
2022-08-24T20:06:30.513Z,101883.00
2022-08-24T20:08:56.962Z,101877.69
2022-08-24T20:11:25.240Z,101876.78
2022-08-24T20:13:51.836Z,101874.03
2022-08-24T20:16:19.832Z,101881.25
2022-08-24T20:18:47.071Z,101880.81
2022-08-24T20:21:14.859Z,101881.25
2022-08-24T20:23:41.679Z,101891.19
2022-08-24T20:26:09.708Z,101886.25
2022-08-24T20:28:43.486Z,101890.81
2022-08-24T20:31:10.039Z,101898.50
2022-08-24T20:33:36.539Z,101895.41
2022-08-24T20:36:03.454Z,101898.19
2022-08-24T20:38:32.004Z,101903.00
2022-08-24T20:40:59.147Z,101901.28
2022-08-24T20:43:25.587Z,101900.09
2022-08-24T20:45:52.786Z,101902.56
2022-08-24T20:48:28.883Z,101895.13
2022-08-24T20:50:55.511Z,101894.19
2022-08-24T20:53:21.966Z,101902.09
2022-08-24T20:55:48.543Z,101897.69
2022-08-24T20:58:17.464Z,101903.69
2022-08-24T21:00:44.590Z,101904.44
2022-08-24T21:03:11.106Z,101902.19
2022-08-24T21:05:38.157Z,101909.66
2022-08-24T21:08:05.432Z,101908.66
2022-08-24T21:10:31.886Z,101902.69
2022-08-24T21:12:59.325Z,101905.66
2022-08-24T21:15:26.142Z,101907.66
2022-08-24T21:17:52.605Z,101909.88
2022-08-24T21:20:19.749Z,101909.38
2022-08-24T21:22:46.359Z,101908.66
2022-08-24T21:25:14.413Z,101906.16
2022-08-24T21:27:42.078Z,101905.19
2022-08-24T21:30:10.144Z,101913.13
2022-08-24T21:32:55.200Z,101917.09
2022-08-24T21:35:22.482Z,101913.66
2022-08-24T21:37:50.150Z,101916.63
2022-08-24T21:40:16.863Z,101913.63
2022-08-24T21:42:43.359Z,101916.88
2022-08-24T21:45:10.213Z,101920.59
2022-08-24T21:47:37.309Z,101920.84
2022-08-24T21:50:05.160Z,101919.06
2022-08-24T21:52:31.693Z,101912.09
2022-08-24T21:54:59.359Z,101915.81
2022-08-24T21:57:27.599Z,101920.47
2022-08-24T21:59:54.012Z,101933.91
2022-08-24T22:02:20.629Z,101927.16
2022-08-24T22:04:47.726Z,101925.84
2022-08-24T22:07:25.879Z,101915.66
2022-08-24T22:09:52.385Z,101915.09
2022-08-24T22:12:18.852Z,101913.56
2022-08-24T22:14:45.327Z,101909.09
2022-08-24T22:17:11.832Z,101913.28
2022-08-24T22:19:38.460Z,101915.53
2022-08-24T22:22:05.188Z,101908.03
2022-08-24T22:24:31.778Z,101899.78
2022-08-24T22:26:58.230Z,101902.47
2022-08-24T22:29:24.659Z,101895.75
2022-08-24T22:31:51.089Z,101903.69
2022-08-24T22:34:20.797Z,101902.16
2022-08-24T22:36:48.468Z,101898.66
2022-08-24T22:39:14.943Z,101888.84
2022-08-24T22:41:41.497Z,101893.34
2022-08-24T22:44:21.037Z,101893.78
2022-08-24T22:46:56.261Z,101890.00
2022-08-24T22:49:31.986Z,101880.56
2022-08-24T22:51:59.010Z,101887.81
2022-08-24T22:54:26.443Z,101882.28
2022-08-24T22:56:54.767Z,101891.19
2022-08-24T22:59:35.798Z,101883.97
2022-08-24T23:02:08.593Z,101884.25
2022-08-24T23:04:37.414Z,101888.97
2022-08-24T23:07:04.936Z,101882.59
2022-08-24T23:09:43.969Z,101878.38
2022-08-24T23:12:13.764Z,101887.06
2022-08-24T23:14:40.393Z,101891.91
2022-08-24T23:17:06.838Z,101882.91
2022-08-24T23:19:51.954Z,101879.88
2022-08-24T23:22:20.053Z,101884.84
2022-08-24T23:24:47.905Z,101884.94
2022-08-24T23:27:16.522Z,101882.56
2022-08-24T23:29:44.085Z,101875.09
2022-08-24T23:32:10.694Z,101876.06
2022-08-24T23:34:37.190Z,101886.41
2022-08-24T23:37:03.735Z,101881.38
2022-08-24T23:39:30.432Z,101881.38
2022-08-24T23:41:57.181Z,101877.84
2022-08-24T23:44:25.984Z,101882.06
2022-08-24T23:46:53.092Z,101880.91
2022-08-24T23:49:20.803Z,101879.16
2022-08-24T23:51:48.146Z,101881.53
2022-08-24T23:54:15.738Z,101880.97
2022-08-24T23:56:44.643Z,101882.06
2022-08-24T23:59:14.173Z,101876.09
